YCAB weather

Caboolture Airport
Queensland, Australia

Public forecast

Using degrees Celsius for public forecast. Weather courtesy of forecast.io.

METAR (pilot weather report)

Closest report is Brisbane International Airport, 19.4 nm (36.0 km) SSE. Retrieved 2019/02/21 01:30 UTC (18 minutes ago):

YBBN 210130Z 13013KT 9999 SCT030 BKN039 28/22 Q1008 FM0200 13018G28KT 9999 SCT035

TAF (pilot weather forecast)

Forecast is more than 12 hours old.

Closest forecast is Brisbane International Airport, 19.4 nm (36.0 km) SSE. Retrieved 2019/02/20 00:00 UTC (1 day ago):

TAF YBBN 202315Z 2100/2206 15015KT 9999 -SHRA SCT025 SCT035 FM210100 14018G28KT 9999 SCT035 FM211000 18015KT 9999 -SHRA FEW015 BKN025 FM212100 16022G32KT 9999 -SHRA FEW015 BKN030 FM220000 17025G35KT 9999 SCT030 INTER 2112/2124 16020G38KT 4000 SHRA BKN012